sensor_id;sensor_type;location;lat;lon;timestamp;P1;durP1;ratioP1;P2;durP2;ratioP2
20069;SDS011;10195;50.868;4.382;2022-07-22T00:02:15;16.80;;;4.20;;
20069;SDS011;10195;50.868;4.382;2022-07-22T00:04:41;17.57;;;4.30;;
20069;SDS011;10195;50.868;4.382;2022-07-22T00:07:07;10.03;;;3.20;;
20069;SDS011;10195;50.868;4.382;2022-07-22T00:09:32;15.60;;;3.97;;
20069;SDS011;10195;50.868;4.382;2022-07-22T00:11:58;11.80;;;3.58;;
20069;SDS011;10195;50.868;4.382;2022-07-22T00:14:24;14.23;;;4.30;;
20069;SDS011;10195;50.868;4.382;2022-07-22T00:16:50;25.97;;;4.20;;
20069;SDS011;10195;50.868;4.382;2022-07-22T00:19:15;20.73;;;4.93;;
20069;SDS011;10195;50.868;4.382;2022-07-22T00:21:41;17.10;;;4.33;;
20069;SDS011;10195;50.868;4.382;2022-07-22T00:24:07;14.13;;;4.17;;
20069;SDS011;10195;50.868;4.382;2022-07-22T00:26:32;17.97;;;4.30;;
20069;SDS011;10195;50.868;4.382;2022-07-22T00:28:58;14.82;;;4.07;;
20069;SDS011;10195;50.868;4.382;2022-07-22T00:31:24;23.83;;;4.80;;
20069;SDS011;10195;50.868;4.382;2022-07-22T00:33:49;26.27;;;5.27;;
20069;SDS011;10195;50.868;4.382;2022-07-22T00:36:15;20.47;;;5.03;;
20069;SDS011;10195;50.868;4.382;2022-07-22T00:38:41;30.27;;;5.27;;
20069;SDS011;10195;50.868;4.382;2022-07-22T00:41:06;20.30;;;5.00;;
20069;SDS011;10195;50.868;4.382;2022-07-22T00:46:34;24.10;;;4.43;;
20069;SDS011;10195;50.868;4.382;2022-07-22T00:49:02;18.70;;;5.33;;
20069;SDS011;10195;50.868;4.382;2022-07-22T00:51:29;21.00;;;4.40;;
20069;SDS011;10195;50.868;4.382;2022-07-22T00:53:55;18.73;;;4.67;;
20069;SDS011;10195;50.868;4.382;2022-07-22T00:56:23;19.07;;;4.90;;
20069;SDS011;10195;50.868;4.382;2022-07-22T00:58:50;16.90;;;5.03;;
20069;SDS011;10195;50.868;4.382;2022-07-22T01:01:16;16.97;;;5.70;;
20069;SDS011;10195;50.868;4.382;2022-07-22T01:03:42;13.10;;;4.70;;
20069;SDS011;10195;50.868;4.382;2022-07-22T01:06:08;20.07;;;5.13;;
20069;SDS011;10195;50.868;4.382;2022-07-22T01:08:34;15.70;;;5.00;;
20069;SDS011;10195;50.868;4.382;2022-07-22T01:11:10;18.30;;;4.63;;
20069;SDS011;10195;50.868;4.382;2022-07-22T01:13:38;14.83;;;4.70;;
20069;SDS011;10195;50.868;4.382;2022-07-22T01:16:04;18.67;;;5.10;;
20069;SDS011;10195;50.868;4.382;2022-07-22T01:18:31;16.53;;;5.17;;
20069;SDS011;10195;50.868;4.382;2022-07-22T01:20:56;23.10;;;5.00;;
20069;SDS011;10195;50.868;4.382;2022-07-22T01:23:22;13.23;;;4.80;;
20069;SDS011;10195;50.868;4.382;2022-07-22T01:25:48;15.20;;;5.13;;
20069;SDS011;10195;50.868;4.382;2022-07-22T01:28:14;19.90;;;5.23;;
20069;SDS011;10195;50.868;4.382;2022-07-22T01:30:40;18.60;;;5.53;;
20069;SDS011;10195;50.868;4.382;2022-07-22T01:33:05;17.63;;;5.63;;
20069;SDS011;10195;50.868;4.382;2022-07-22T01:35:31;20.97;;;5.17;;
20069;SDS011;10195;50.868;4.382;2022-07-22T01:37:56;20.07;;;5.33;;
20069;SDS011;10195;50.868;4.382;2022-07-22T01:40:22;25.20;;;6.43;;
20069;SDS011;10195;50.868;4.382;2022-07-22T01:42:48;17.00;;;4.70;;
20069;SDS011;10195;50.868;4.382;2022-07-22T01:45:13;16.30;;;5.30;;
20069;SDS011;10195;50.868;4.382;2022-07-22T01:47:39;19.47;;;5.17;;
20069;SDS011;10195;50.868;4.382;2022-07-22T01:50:05;21.90;;;5.73;;
20069;SDS011;10195;50.868;4.382;2022-07-22T01:52:33;15.03;;;5.10;;
20069;SDS011;10195;50.868;4.382;2022-07-22T01:54:58;18.30;;;5.17;;
20069;SDS011;10195;50.868;4.382;2022-07-22T01:57:24;17.90;;;5.13;;
20069;SDS011;10195;50.868;4.382;2022-07-22T01:59:50;18.83;;;5.40;;
20069;SDS011;10195;50.868;4.382;2022-07-22T02:02:15;20.20;;;5.30;;
20069;SDS011;10195;50.868;4.382;2022-07-22T02:04:41;19.90;;;5.10;;
20069;SDS011;10195;50.868;4.382;2022-07-22T02:07:07;17.17;;;5.20;;
20069;SDS011;10195;50.868;4.382;2022-07-22T02:09:32;16.27;;;4.97;;
20069;SDS011;10195;50.868;4.382;2022-07-22T02:11:58;19.67;;;4.50;;
20069;SDS011;10195;50.868;4.382;2022-07-22T02:14:23;15.47;;;4.90;;
20069;SDS011;10195;50.868;4.382;2022-07-22T02:16:49;21.77;;;5.13;;
20069;SDS011;10195;50.868;4.382;2022-07-22T02:19:15;23.13;;;5.33;;
20069;SDS011;10195;50.868;4.382;2022-07-22T02:21:40;14.93;;;4.83;;
20069;SDS011;10195;50.868;4.382;2022-07-22T02:24:06;18.20;;;5.20;;
20069;SDS011;10195;50.868;4.382;2022-07-22T02:26:32;17.53;;;5.30;;
20069;SDS011;10195;50.868;4.382;2022-07-22T02:28:58;16.50;;;5.57;;
20069;SDS011;10195;50.868;4.382;2022-07-22T02:31:24;14.80;;;6.03;;
20069;SDS011;10195;50.868;4.382;2022-07-22T02:33:50;21.60;;;5.87;;
20069;SDS011;10195;50.868;4.382;2022-07-22T02:36:15;16.70;;;5.80;;
20069;SDS011;10195;50.868;4.382;2022-07-22T02:38:41;23.37;;;6.30;;
20069;SDS011;10195;50.868;4.382;2022-07-22T02:41:07;24.13;;;5.87;;
20069;SDS011;10195;50.868;4.382;2022-07-22T02:43:32;18.83;;;6.10;;
20069;SDS011;10195;50.868;4.382;2022-07-22T02:45:58;14.90;;;5.60;;
20069;SDS011;10195;50.868;4.382;2022-07-22T02:48:24;13.30;;;5.20;;
20069;SDS011;10195;50.868;4.382;2022-07-22T02:50:50;17.57;;;5.73;;
20069;SDS011;10195;50.868;4.382;2022-07-22T02:53:15;21.77;;;6.10;;
20069;SDS011;10195;50.868;4.382;2022-07-22T02:55:41;13.90;;;5.27;;
20069;SDS011;10195;50.868;4.382;2022-07-22T02:58:07;18.97;;;6.20;;
20069;SDS011;10195;50.868;4.382;2022-07-22T03:00:34;13.87;;;5.13;;
20069;SDS011;10195;50.868;4.382;2022-07-22T03:03:00;17.83;;;5.60;;
20069;SDS011;10195;50.868;4.382;2022-07-22T03:05:26;24.43;;;5.37;;
20069;SDS011;10195;50.868;4.382;2022-07-22T03:07:52;18.77;;;6.40;;
20069;SDS011;10195;50.868;4.382;2022-07-22T03:10:17;16.97;;;5.93;;
20069;SDS011;10195;50.868;4.382;2022-07-22T03:12:43;17.00;;;5.60;;
20069;SDS011;10195;50.868;4.382;2022-07-22T03:15:08;13.33;;;4.77;;
20069;SDS011;10195;50.868;4.382;2022-07-22T03:17:35;23.40;;;5.57;;
20069;SDS011;10195;50.868;4.382;2022-07-22T03:20:02;19.97;;;5.53;;
20069;SDS011;10195;50.868;4.382;2022-07-22T03:22:29;13.07;;;4.23;;
20069;SDS011;10195;50.868;4.382;2022-07-22T03:24:54;25.50;;;4.97;;
20069;SDS011;10195;50.868;4.382;2022-07-22T03:27:20;22.03;;;4.63;;
20069;SDS011;10195;50.868;4.382;2022-07-22T03:29:46;17.33;;;4.73;;
20069;SDS011;10195;50.868;4.382;2022-07-22T03:32:11;21.57;;;5.07;;
20069;SDS011;10195;50.868;4.382;2022-07-22T03:34:37;14.77;;;5.40;;
20069;SDS011;10195;50.868;4.382;2022-07-22T03:37:03;22.60;;;4.83;;
20069;SDS011;10195;50.868;4.382;2022-07-22T03:39:28;19.57;;;4.90;;
20069;SDS011;10195;50.868;4.382;2022-07-22T03:41:54;20.83;;;4.63;;
20069;SDS011;10195;50.868;4.382;2022-07-22T03:44:20;21.30;;;4.47;;
20069;SDS011;10195;50.868;4.382;2022-07-22T03:46:45;15.53;;;4.07;;
20069;SDS011;10195;50.868;4.382;2022-07-22T03:49:11;15.83;;;4.77;;
20069;SDS011;10195;50.868;4.382;2022-07-22T03:51:37;23.83;;;4.77;;
20069;SDS011;10195;50.868;4.382;2022-07-22T03:54:02;19.67;;;4.40;;
20069;SDS011;10195;50.868;4.382;2022-07-22T03:56:28;23.87;;;4.40;;
20069;SDS011;10195;50.868;4.382;2022-07-22T03:58:54;14.77;;;4.47;;
20069;SDS011;10195;50.868;4.382;2022-07-22T04:01:20;19.50;;;4.50;;
20069;SDS011;10195;50.868;4.382;2022-07-22T04:03:45;15.67;;;4.53;;
20069;SDS011;10195;50.868;4.382;2022-07-22T04:06:11;16.73;;;4.77;;
20069;SDS011;10195;50.868;4.382;2022-07-22T04:08:36;22.60;;;5.03;;
20069;SDS011;10195;50.868;4.382;2022-07-22T04:11:02;13.17;;;4.40;;
20069;SDS011;10195;50.868;4.382;2022-07-22T04:13:28;18.50;;;4.43;;
20069;SDS011;10195;50.868;4.382;2022-07-22T04:15:53;15.83;;;4.73;;
20069;SDS011;10195;50.868;4.382;2022-07-22T04:18:19;17.90;;;5.17;;
20069;SDS011;10195;50.868;4.382;2022-07-22T04:20:45;14.40;;;5.07;;
20069;SDS011;10195;50.868;4.382;2022-07-22T04:23:11;16.27;;;4.70;;
20069;SDS011;10195;50.868;4.382;2022-07-22T04:25:37;21.63;;;5.07;;
20069;SDS011;10195;50.868;4.382;2022-07-22T04:28:03;18.87;;;4.63;;
20069;SDS011;10195;50.868;4.382;2022-07-22T04:30:28;20.03;;;4.73;;
20069;SDS011;10195;50.868;4.382;2022-07-22T04:32:54;16.50;;;4.73;;
20069;SDS011;10195;50.868;4.382;2022-07-22T04:35:20;12.73;;;4.20;;
20069;SDS011;10195;50.868;4.382;2022-07-22T04:37:45;18.83;;;4.30;;
20069;SDS011;10195;50.868;4.382;2022-07-22T04:40:11;12.13;;;4.53;;
20069;SDS011;10195;50.868;4.382;2022-07-22T04:42:37;13.90;;;4.37;;
20069;SDS011;10195;50.868;4.382;2022-07-22T04:45:03;21.13;;;4.53;;
20069;SDS011;10195;50.868;4.382;2022-07-22T04:47:29;23.73;;;5.00;;
20069;SDS011;10195;50.868;4.382;2022-07-22T04:49:54;17.70;;;4.90;;
20069;SDS011;10195;50.868;4.382;2022-07-22T04:52:20;17.23;;;4.60;;
20069;SDS011;10195;50.868;4.382;2022-07-22T04:54:45;21.37;;;5.20;;
20069;SDS011;10195;50.868;4.382;2022-07-22T04:57:11;24.47;;;4.93;;
20069;SDS011;10195;50.868;4.382;2022-07-22T04:59:37;14.00;;;4.43;;
20069;SDS011;10195;50.868;4.382;2022-07-22T05:02:02;14.87;;;5.27;;
20069;SDS011;10195;50.868;4.382;2022-07-22T05:04:28;17.53;;;4.63;;
20069;SDS011;10195;50.868;4.382;2022-07-22T05:06:54;20.73;;;4.63;;
20069;SDS011;10195;50.868;4.382;2022-07-22T05:09:20;22.13;;;4.87;;
20069;SDS011;10195;50.868;4.382;2022-07-22T05:11:45;11.57;;;4.97;;
20069;SDS011;10195;50.868;4.382;2022-07-22T05:14:11;16.30;;;5.67;;
20069;SDS011;10195;50.868;4.382;2022-07-22T05:16:37;14.83;;;4.77;;
20069;SDS011;10195;50.868;4.382;2022-07-22T05:19:03;18.43;;;5.10;;
20069;SDS011;10195;50.868;4.382;2022-07-22T05:21:29;13.73;;;5.03;;
20069;SDS011;10195;50.868;4.382;2022-07-22T05:23:55;12.07;;;4.97;;
20069;SDS011;10195;50.868;4.382;2022-07-22T05:26:21;17.10;;;5.13;;
20069;SDS011;10195;50.868;4.382;2022-07-22T05:28:47;19.30;;;5.70;;
20069;SDS011;10195;50.868;4.382;2022-07-22T05:31:12;18.50;;;5.80;;
20069;SDS011;10195;50.868;4.382;2022-07-22T05:33:38;15.30;;;5.57;;
20069;SDS011;10195;50.868;4.382;2022-07-22T05:36:04;11.53;;;5.43;;
20069;SDS011;10195;50.868;4.382;2022-07-22T05:38:33;20.35;;;5.28;;
20069;SDS011;10195;50.868;4.382;2022-07-22T05:40:59;14.63;;;4.70;;
20069;SDS011;10195;50.868;4.382;2022-07-22T05:43:24;16.13;;;4.70;;
20069;SDS011;10195;50.868;4.382;2022-07-22T05:45:50;11.38;;;4.28;;
20069;SDS011;10195;50.868;4.382;2022-07-22T05:48:16;15.00;;;5.07;;
20069;SDS011;10195;50.868;4.382;2022-07-22T05:50:42;18.33;;;5.63;;
20069;SDS011;10195;50.868;4.382;2022-07-22T05:53:07;19.70;;;5.97;;
20069;SDS011;10195;50.868;4.382;2022-07-22T05:55:33;21.80;;;5.60;;
20069;SDS011;10195;50.868;4.382;2022-07-22T05:57:59;14.25;;;5.38;;
20069;SDS011;10195;50.868;4.382;2022-07-22T06:00:24;15.20;;;5.47;;
20069;SDS011;10195;50.868;4.382;2022-07-22T06:02:50;16.17;;;6.53;;
20069;SDS011;10195;50.868;4.382;2022-07-22T06:05:15;18.10;;;7.35;;
20069;SDS011;10195;50.868;4.382;2022-07-22T06:07:41;24.73;;;7.28;;
20069;SDS011;10195;50.868;4.382;2022-07-22T06:10:07;24.73;;;6.70;;
20069;SDS011;10195;50.868;4.382;2022-07-22T06:12:33;22.90;;;6.63;;
20069;SDS011;10195;50.868;4.382;2022-07-22T06:14:58;14.50;;;6.30;;
20069;SDS011;10195;50.868;4.382;2022-07-22T06:17:24;15.63;;;6.20;;
20069;SDS011;10195;50.868;4.382;2022-07-22T06:19:50;18.42;;;6.20;;
20069;SDS011;10195;50.868;4.382;2022-07-22T06:22:15;16.77;;;6.22;;
20069;SDS011;10195;50.868;4.382;2022-07-22T06:24:42;13.30;;;6.07;;
20069;SDS011;10195;50.868;4.382;2022-07-22T06:27:09;13.32;;;5.45;;
20069;SDS011;10195;50.868;4.382;2022-07-22T06:29:34;16.08;;;5.47;;
20069;SDS011;10195;50.868;4.382;2022-07-22T06:32:00;12.07;;;4.97;;
20069;SDS011;10195;50.868;4.382;2022-07-22T06:34:26;12.63;;;5.30;;
20069;SDS011;10195;50.868;4.382;2022-07-22T06:36:52;17.55;;;5.43;;
20069;SDS011;10195;50.868;4.382;2022-07-22T06:39:18;17.42;;;5.55;;
20069;SDS011;10195;50.868;4.382;2022-07-22T06:41:43;13.25;;;4.93;;
20069;SDS011;10195;50.868;4.382;2022-07-22T06:44:09;16.60;;;6.18;;
20069;SDS011;10195;50.868;4.382;2022-07-22T06:46:35;11.35;;;4.95;;
20069;SDS011;10195;50.868;4.382;2022-07-22T06:49:00;15.15;;;5.60;;
20069;SDS011;10195;50.868;4.382;2022-07-22T06:51:26;12.38;;;4.82;;
20069;SDS011;10195;50.868;4.382;2022-07-22T06:53:52;9.88;;;4.78;;
20069;SDS011;10195;50.868;4.382;2022-07-22T06:56:18;13.93;;;4.95;;
20069;SDS011;10195;50.868;4.382;2022-07-22T06:58:43;11.88;;;4.55;;
20069;SDS011;10195;50.868;4.382;2022-07-22T07:01:09;10.35;;;4.28;;
20069;SDS011;10195;50.868;4.382;2022-07-22T07:03:35;16.77;;;4.60;;
20069;SDS011;10195;50.868;4.382;2022-07-22T07:06:00;8.25;;;4.35;;
20069;SDS011;10195;50.868;4.382;2022-07-22T07:08:27;13.93;;;4.50;;
20069;SDS011;10195;50.868;4.382;2022-07-22T07:10:53;13.30;;;4.18;;
20069;SDS011;10195;50.868;4.382;2022-07-22T07:13:19;12.65;;;4.20;;
20069;SDS011;10195;50.868;4.382;2022-07-22T07:15:44;9.30;;;3.30;;
20069;SDS011;10195;50.868;4.382;2022-07-22T07:18:10;9.07;;;3.00;;
20069;SDS011;10195;50.868;4.382;2022-07-22T07:20:36;8.00;;;3.13;;
20069;SDS011;10195;50.868;4.382;2022-07-22T07:23:02;9.40;;;3.95;;
20069;SDS011;10195;50.868;4.382;2022-07-22T07:25:28;11.95;;;3.30;;
20069;SDS011;10195;50.868;4.382;2022-07-22T07:27:53;8.93;;;3.30;;
20069;SDS011;10195;50.868;4.382;2022-07-22T07:30:19;11.32;;;3.63;;
20069;SDS011;10195;50.868;4.382;2022-07-22T07:32:45;10.23;;;3.78;;
20069;SDS011;10195;50.868;4.382;2022-07-22T07:35:11;9.30;;;3.15;;
20069;SDS011;10195;50.868;4.382;2022-07-22T07:37:37;9.40;;;3.70;;
20069;SDS011;10195;50.868;4.382;2022-07-22T07:40:03;6.82;;;3.50;;
20069;SDS011;10195;50.868;4.382;2022-07-22T07:42:30;6.78;;;3.20;;
20069;SDS011;10195;50.868;4.382;2022-07-22T07:44:55;10.02;;;3.70;;
20069;SDS011;10195;50.868;4.382;2022-07-22T07:47:21;6.93;;;3.58;;
20069;SDS011;10195;50.868;4.382;2022-07-22T07:49:48;7.65;;;3.28;;
20069;SDS011;10195;50.868;4.382;2022-07-22T07:52:14;11.60;;;3.75;;
20069;SDS011;10195;50.868;4.382;2022-07-22T07:54:41;12.80;;;3.65;;
20069;SDS011;10195;50.868;4.382;2022-07-22T07:57:07;10.50;;;3.83;;
20069;SDS011;10195;50.868;4.382;2022-07-22T07:59:35;12.05;;;4.00;;
20069;SDS011;10195;50.868;4.382;2022-07-22T08:02:01;7.57;;;3.55;;
20069;SDS011;10195;50.868;4.382;2022-07-22T08:04:27;7.85;;;3.50;;
20069;SDS011;10195;50.868;4.382;2022-07-22T08:06:52;14.75;;;3.67;;
20069;SDS011;10195;50.868;4.382;2022-07-22T08:09:18;12.27;;;4.28;;
20069;SDS011;10195;50.868;4.382;2022-07-22T08:11:44;8.30;;;3.78;;
20069;SDS011;10195;50.868;4.382;2022-07-22T08:14:09;9.82;;;4.18;;
20069;SDS011;10195;50.868;4.382;2022-07-22T08:16:35;8.65;;;4.05;;
20069;SDS011;10195;50.868;4.382;2022-07-22T08:19:00;10.25;;;4.20;;
20069;SDS011;10195;50.868;4.382;2022-07-22T08:21:26;6.55;;;3.80;;
20069;SDS011;10195;50.868;4.382;2022-07-22T08:23:52;7.95;;;3.80;;
20069;SDS011;10195;50.868;4.382;2022-07-22T08:26:18;12.32;;;3.80;;
20069;SDS011;10195;50.868;4.382;2022-07-22T08:28:43;10.25;;;3.42;;
20069;SDS011;10195;50.868;4.382;2022-07-22T08:31:09;9.25;;;3.50;;
20069;SDS011;10195;50.868;4.382;2022-07-22T08:33:35;11.85;;;4.30;;
20069;SDS011;10195;50.868;4.382;2022-07-22T08:36:00;10.02;;;3.53;;
20069;SDS011;10195;50.868;4.382;2022-07-22T08:38:26;11.30;;;4.15;;
20069;SDS011;10195;50.868;4.382;2022-07-22T08:40:55;10.23;;;4.00;;
20069;SDS011;10195;50.868;4.382;2022-07-22T08:43:21;9.70;;;3.80;;
20069;SDS011;10195;50.868;4.382;2022-07-22T08:45:47;8.82;;;4.07;;
20069;SDS011;10195;50.868;4.382;2022-07-22T08:48:13;7.35;;;3.60;;
20069;SDS011;10195;50.868;4.382;2022-07-22T08:50:39;10.45;;;3.72;;
20069;SDS011;10195;50.868;4.382;2022-07-22T08:53:08;5.70;;;3.42;;
20069;SDS011;10195;50.868;4.382;2022-07-22T08:55:40;10.85;;;4.18;;
20069;SDS011;10195;50.868;4.382;2022-07-22T08:58:07;9.13;;;4.03;;
20069;SDS011;10195;50.868;4.382;2022-07-22T09:00:32;8.45;;;3.30;;
20069;SDS011;10195;50.868;4.382;2022-07-22T09:02:58;6.68;;;3.65;;
20069;SDS011;10195;50.868;4.382;2022-07-22T09:05:24;8.45;;;3.90;;
20069;SDS011;10195;50.868;4.382;2022-07-22T09:07:58;12.18;;;3.90;;
20069;SDS011;10195;50.868;4.382;2022-07-22T09:10:29;8.68;;;3.72;;
20069;SDS011;10195;50.868;4.382;2022-07-22T09:12:57;9.52;;;3.58;;
20069;SDS011;10195;50.868;4.382;2022-07-22T09:15:28;6.45;;;3.88;;
20069;SDS011;10195;50.868;4.382;2022-07-22T09:17:56;4.05;;;2.50;;
20069;SDS011;10195;50.868;4.382;2022-07-22T09:20:23;8.70;;;2.97;;
20069;SDS011;10195;50.868;4.382;2022-07-22T09:22:49;8.07;;;2.97;;
20069;SDS011;10195;50.868;4.382;2022-07-22T09:25:26;6.55;;;2.75;;
20069;SDS011;10195;50.868;4.382;2022-07-22T09:30:31;7.90;;;3.15;;
20069;SDS011;10195;50.868;4.382;2022-07-22T09:32:58;5.63;;;3.15;;
20069;SDS011;10195;50.868;4.382;2022-07-22T09:35:24;10.02;;;3.40;;
20069;SDS011;10195;50.868;4.382;2022-07-22T09:37:50;8.32;;;2.92;;
20069;SDS011;10195;50.868;4.382;2022-07-22T09:42:51;7.28;;;3.00;;
20069;SDS011;10195;50.868;4.382;2022-07-22T09:45:19;7.03;;;2.80;;
20069;SDS011;10195;50.868;4.382;2022-07-22T09:47:46;8.60;;;3.72;;
20069;SDS011;10195;50.868;4.382;2022-07-22T09:50:32;7.53;;;3.38;;
20069;SDS011;10195;50.868;4.382;2022-07-22T09:52:59;6.40;;;2.95;;
20069;SDS011;10195;50.868;4.382;2022-07-22T09:55:26;6.57;;;3.55;;
20069;SDS011;10195;50.868;4.382;2022-07-22T09:57:54;8.65;;;3.47;;
20069;SDS011;10195;50.868;4.382;2022-07-22T10:00:22;6.93;;;2.88;;
20069;SDS011;10195;50.868;4.382;2022-07-22T10:02:51;6.97;;;3.00;;
20069;SDS011;10195;50.868;4.382;2022-07-22T10:05:22;8.43;;;3.03;;
20069;SDS011;10195;50.868;4.382;2022-07-22T10:07:52;12.07;;;3.15;;
20069;SDS011;10195;50.868;4.382;2022-07-22T10:10:19;6.50;;;2.80;;
20069;SDS011;10195;50.868;4.382;2022-07-22T10:12:48;10.07;;;3.22;;
20069;SDS011;10195;50.868;4.382;2022-07-22T10:15:16;7.18;;;3.28;;
20069;SDS011;10195;50.868;4.382;2022-07-22T10:17:43;16.05;;;3.28;;
20069;SDS011;10195;50.868;4.382;2022-07-22T10:20:11;7.47;;;3.17;;
20069;SDS011;10195;50.868;4.382;2022-07-22T10:25:10;6.93;;;3.83;;
20069;SDS011;10195;50.868;4.382;2022-07-22T10:27:47;6.57;;;3.25;;
20069;SDS011;10195;50.868;4.382;2022-07-22T10:30:13;6.03;;;2.65;;
20069;SDS011;10195;50.868;4.382;2022-07-22T10:32:41;7.53;;;3.42;;
20069;SDS011;10195;50.868;4.382;2022-07-22T10:45:26;9.15;;;3.65;;
20069;SDS011;10195;50.868;4.382;2022-07-22T10:47:57;9.10;;;3.33;;
20069;SDS011;10195;50.868;4.382;2022-07-22T10:53:05;9.52;;;3.35;;
20069;SDS011;10195;50.868;4.382;2022-07-22T10:55:31;8.50;;;3.95;;
20069;SDS011;10195;50.868;4.382;2022-07-22T10:57:57;10.00;;;3.20;;
20069;SDS011;10195;50.868;4.382;2022-07-22T11:00:23;9.98;;;3.50;;
20069;SDS011;10195;50.868;4.382;2022-07-22T11:02:49;10.52;;;3.72;;
20069;SDS011;10195;50.868;4.382;2022-07-22T11:05:14;8.30;;;3.58;;
20069;SDS011;10195;50.868;4.382;2022-07-22T11:07:54;7.63;;;3.83;;
20069;SDS011;10195;50.868;4.382;2022-07-22T11:10:20;7.45;;;4.05;;
20069;SDS011;10195;50.868;4.382;2022-07-22T11:12:46;11.38;;;3.55;;
20069;SDS011;10195;50.868;4.382;2022-07-22T11:15:13;11.77;;;4.53;;
20069;SDS011;10195;50.868;4.382;2022-07-22T11:17:39;11.52;;;3.92;;
20069;SDS011;10195;50.868;4.382;2022-07-22T11:20:06;7.40;;;4.38;;
20069;SDS011;10195;50.868;4.382;2022-07-22T11:22:34;8.85;;;3.70;;
20069;SDS011;10195;50.868;4.382;2022-07-22T11:25:02;11.57;;;3.80;;
20069;SDS011;10195;50.868;4.382;2022-07-22T11:27:29;7.13;;;3.88;;
20069;SDS011;10195;50.868;4.382;2022-07-22T11:29:55;6.30;;;3.50;;
20069;SDS011;10195;50.868;4.382;2022-07-22T11:32:22;9.45;;;3.72;;
20069;SDS011;10195;50.868;4.382;2022-07-22T11:34:50;10.38;;;4.80;;
20069;SDS011;10195;50.868;4.382;2022-07-22T11:37:17;9.00;;;3.92;;
20069;SDS011;10195;50.868;4.382;2022-07-22T11:39:44;8.70;;;3.92;;
20069;SDS011;10195;50.868;4.382;2022-07-22T11:42:10;8.77;;;3.97;;
20069;SDS011;10195;50.868;4.382;2022-07-22T11:44:37;11.60;;;4.03;;
20069;SDS011;10195;50.868;4.382;2022-07-22T11:47:04;9.95;;;3.40;;
20069;SDS011;10195;50.868;4.382;2022-07-22T11:49:32;10.45;;;3.97;;
20069;SDS011;10195;50.868;4.382;2022-07-22T11:52:00;9.55;;;3.92;;
20069;SDS011;10195;50.868;4.382;2022-07-22T11:54:27;9.02;;;4.47;;
20069;SDS011;10195;50.868;4.382;2022-07-22T11:56:53;8.05;;;4.18;;
20069;SDS011;10195;50.868;4.382;2022-07-22T11:59:19;11.90;;;4.30;;
20069;SDS011;10195;50.868;4.382;2022-07-22T12:01:45;8.40;;;4.28;;
20069;SDS011;10195;50.868;4.382;2022-07-22T12:04:13;8.38;;;4.13;;
20069;SDS011;10195;50.868;4.382;2022-07-22T12:06:41;8.85;;;3.85;;
20069;SDS011;10195;50.868;4.382;2022-07-22T12:09:09;8.07;;;3.75;;
20069;SDS011;10195;50.868;4.382;2022-07-22T12:11:37;11.32;;;4.85;;
20069;SDS011;10195;50.868;4.382;2022-07-22T12:14:08;8.38;;;4.20;;
20069;SDS011;10195;50.868;4.382;2022-07-22T12:16:35;9.20;;;4.50;;
20069;SDS011;10195;50.868;4.382;2022-07-22T12:21:33;8.82;;;4.40;;
20069;SDS011;10195;50.868;4.382;2022-07-22T12:24:02;13.20;;;4.68;;
20069;SDS011;10195;50.868;4.382;2022-07-22T12:26:46;10.50;;;4.20;;
20069;SDS011;10195;50.868;4.382;2022-07-22T12:29:29;6.95;;;4.15;;
20069;SDS011;10195;50.868;4.382;2022-07-22T12:39:56;8.20;;;4.47;;
20069;SDS011;10195;50.868;4.382;2022-07-22T12:42:28;5.70;;;3.95;;
20069;SDS011;10195;50.868;4.382;2022-07-22T12:47:43;6.07;;;3.58;;
20069;SDS011;10195;50.868;4.382;2022-07-22T12:50:22;7.70;;;4.35;;
20069;SDS011;10195;50.868;4.382;2022-07-22T12:52:51;8.98;;;4.20;;
20069;SDS011;10195;50.868;4.382;2022-07-22T12:55:18;7.82;;;4.07;;
20069;SDS011;10195;50.868;4.382;2022-07-22T12:57:44;7.30;;;3.95;;
20069;SDS011;10195;50.868;4.382;2022-07-22T13:00:10;8.13;;;4.15;;
20069;SDS011;10195;50.868;4.382;2022-07-22T13:02:40;7.88;;;4.28;;
20069;SDS011;10195;50.868;4.382;2022-07-22T13:05:06;9.32;;;4.22;;
20069;SDS011;10195;50.868;4.382;2022-07-22T13:07:32;8.95;;;4.38;;
20069;SDS011;10195;50.868;4.382;2022-07-22T13:09:57;7.82;;;4.50;;
20069;SDS011;10195;50.868;4.382;2022-07-22T13:12:23;6.32;;;4.40;;
20069;SDS011;10195;50.868;4.382;2022-07-22T13:14:49;7.22;;;4.15;;
20069;SDS011;10195;50.868;4.382;2022-07-22T13:17:14;9.85;;;3.72;;
20069;SDS011;10195;50.868;4.382;2022-07-22T13:19:40;10.60;;;4.82;;
20069;SDS011;10195;50.868;4.382;2022-07-22T13:22:05;9.05;;;4.50;;
20069;SDS011;10195;50.868;4.382;2022-07-22T13:24:31;9.88;;;4.20;;
20069;SDS011;10195;50.868;4.382;2022-07-22T13:26:56;8.75;;;3.45;;
20069;SDS011;10195;50.868;4.382;2022-07-22T13:29:22;6.30;;;4.38;;
20069;SDS011;10195;50.868;4.382;2022-07-22T13:31:48;16.08;;;4.43;;
20069;SDS011;10195;50.868;4.382;2022-07-22T13:34:14;8.05;;;3.85;;
20069;SDS011;10195;50.868;4.382;2022-07-22T13:36:39;7.20;;;3.90;;
20069;SDS011;10195;50.868;4.382;2022-07-22T13:39:05;12.65;;;4.25;;
20069;SDS011;10195;50.868;4.382;2022-07-22T13:41:31;15.23;;;3.65;;
20069;SDS011;10195;50.868;4.382;2022-07-22T13:43:56;7.88;;;3.83;;
20069;SDS011;10195;50.868;4.382;2022-07-22T13:46:22;8.93;;;3.58;;
20069;SDS011;10195;50.868;4.382;2022-07-22T13:48:48;11.07;;;3.80;;
20069;SDS011;10195;50.868;4.382;2022-07-22T13:51:13;6.40;;;3.22;;
20069;SDS011;10195;50.868;4.382;2022-07-22T13:53:40;8.45;;;3.63;;
20069;SDS011;10195;50.868;4.382;2022-07-22T13:56:07;8.10;;;3.55;;
20069;SDS011;10195;50.868;4.382;2022-07-22T13:58:34;6.30;;;3.35;;
20069;SDS011;10195;50.868;4.382;2022-07-22T14:01:00;8.25;;;4.20;;
20069;SDS011;10195;50.868;4.382;2022-07-22T14:03:26;7.90;;;3.60;;
20069;SDS011;10195;50.868;4.382;2022-07-22T14:05:52;7.65;;;4.20;;
20069;SDS011;10195;50.868;4.382;2022-07-22T14:08:17;10.18;;;4.45;;
20069;SDS011;10195;50.868;4.382;2022-07-22T14:10:43;8.43;;;3.85;;
20069;SDS011;10195;50.868;4.382;2022-07-22T14:13:09;8.32;;;3.70;;
20069;SDS011;10195;50.868;4.382;2022-07-22T14:15:36;8.05;;;4.10;;
20069;SDS011;10195;50.868;4.382;2022-07-22T14:18:01;8.32;;;4.18;;
20069;SDS011;10195;50.868;4.382;2022-07-22T14:20:28;11.95;;;4.45;;
20069;SDS011;10195;50.868;4.382;2022-07-22T14:22:53;9.20;;;3.75;;
20069;SDS011;10195;50.868;4.382;2022-07-22T14:25:19;8.60;;;4.55;;
20069;SDS011;10195;50.868;4.382;2022-07-22T14:27:45;10.35;;;4.65;;
20069;SDS011;10195;50.868;4.382;2022-07-22T14:30:11;6.30;;;3.92;;
20069;SDS011;10195;50.868;4.382;2022-07-22T14:32:37;12.98;;;4.97;;
20069;SDS011;10195;50.868;4.382;2022-07-22T14:35:02;8.23;;;4.53;;
20069;SDS011;10195;50.868;4.382;2022-07-22T14:37:30;10.27;;;4.00;;
20069;SDS011;10195;50.868;4.382;2022-07-22T14:39:56;10.02;;;4.47;;
20069;SDS011;10195;50.868;4.382;2022-07-22T14:42:23;10.25;;;5.00;;
20069;SDS011;10195;50.868;4.382;2022-07-22T14:44:49;9.38;;;4.22;;
20069;SDS011;10195;50.868;4.382;2022-07-22T14:47:15;11.05;;;5.05;;
20069;SDS011;10195;50.868;4.382;2022-07-22T14:49:40;8.95;;;4.07;;
20069;SDS011;10195;50.868;4.382;2022-07-22T14:52:09;10.43;;;4.55;;
20069;SDS011;10195;50.868;4.382;2022-07-22T14:54:35;11.77;;;4.90;;
20069;SDS011;10195;50.868;4.382;2022-07-22T14:57:00;8.07;;;4.65;;
20069;SDS011;10195;50.868;4.382;2022-07-22T14:59:26;6.05;;;4.38;;
20069;SDS011;10195;50.868;4.382;2022-07-22T15:01:52;17.65;;;5.38;;
20069;SDS011;10195;50.868;4.382;2022-07-22T15:04:18;13.70;;;5.10;;
20069;SDS011;10195;50.868;4.382;2022-07-22T15:06:43;14.57;;;4.93;;
20069;SDS011;10195;50.868;4.382;2022-07-22T15:09:09;9.20;;;4.40;;
20069;SDS011;10195;50.868;4.382;2022-07-22T15:11:35;8.13;;;4.63;;